الصفحة الرئيسية
METAR-TAF:

METAR-TAF

مطار :

مطار فا الدولي

تاهيتي, بولينسيا الفرنسية

دائرة عرض: 17-33S, خط طول: 149-37W, ارتفاع: 2 متر

مراقبة الطقس الحالي

تاريخ ووقت الإصدار 28 دقيقة قبل الساعة 19:00UTC
ريح 7 عقدة من الشمال/الشمال الشرقي
درجة الحرارة 28°درجة مئوية
الرطوبة 66%
ضغط 1016 hPa
الرؤية 10 كم أو أكثر
غيوم قليلة على ارتفاع 2300 قدم

METAR: NTAA 161900Z 02007KT 9999 FEW023 28/21 Q1016 NOSIG

زمن: 09:28 (19:28 UTC)

توقعات

تاريخ ووقت الإصدار 2ساعات و 28 دقيقة قبل الساعة 17:00UTC
التوقعات صالحة من16 الساعة 18 UTC إلى 17 الساعة 24 UTC
ريح 5 عقدةمن اتجاهات متغيرة
الرؤية 10 كم أو أكثر
غيوم قليلة على ارتفاع 2500 قدم

TAF: NTAA 161700Z 1618/1724 VRB05KT 9999 FEW025

أرصاد الطقس والتوقعات من أكثر من 4000 مطار (تقارير الطقس للمطار METAR والتنبؤ بالطقس بالمطارTAF).

المحطات المتاحة هي النقط الصفراء والحمراء على الخريطة.

حرك المؤشر فوق النقطة لمعرفة اسم المحطة.

ثم انقر لمعرفة أرصاد وتوقعات الطقس.

لتغيير الخارطة: اضغط على الأزرار الخضراء مع رمز الصليب الأسود للتكبير. على الزر الأخضر مع شرطة للتصغير، أو على الأسهم الخضراء للخرائط المجاورة.


METAR-TAF: